Time;durP1;ratioP1;P1;durP2;ratioP2;P2;SDS_P1;SDS_P2;PMS_P1;PMS_P2;Temp;Humidity;BMP_temperature;BMP_pressure;BME280_temperature;BME280_humidity;BME280_pressure;Samples;Min_cycle;Max_cycle;Signal;HPM_P1;HPM_P2
2024/03/02 00:00:38;;;;;;;10.00;4.50;;;;;;;7.32;100.00;95161.25;5037441;28;20224;-68
2024/03/02 00:03:05;;;;;;;7.80;4.23;;;;;;;7.13;100.00;95163.59;5036171;28;20673;-68
2024/03/02 00:05:31;;;;;;;11.83;5.50;;;;;;;7.35;100.00;95161.66;5037764;28;20694;-68
2024/03/02 00:08:00;;;;;;;10.67;5.50;;;;;;;7.55;100.00;95164.53;5037131;28;20225;-68
2024/03/02 00:10:36;;;;;;;14.07;5.27;;;;;;;7.61;100.00;95172.47;5037583;28;21216;-68
2024/03/02 00:13:03;;;;;;;16.23;5.73;;;;;;;7.43;100.00;95164.22;5036741;28;20217;-68
2024/03/02 00:15:52;;;;;;;12.57;5.00;;;;;;;7.76;100.00;95154.06;5037688;28;20205;-68
2024/03/02 00:18:21;;;;;;;10.20;3.93;;;;;;;7.45;100.00;95170.06;5033696;28;20250;-68
2024/03/02 00:20:48;;;;;;;10.00;4.17;;;;;;;7.31;100.00;95168.28;5037465;28;20580;-68
2024/03/02 00:23:17;;;;;;;8.47;4.43;;;;;;;7.41;100.00;95168.00;5036611;28;20734;-68
2024/03/02 00:25:45;;;;;;;9.77;4.80;;;;;;;7.36;100.00;95165.91;5037339;28;20212;-68
2024/03/02 00:28:17;;;;;;;12.70;4.53;;;;;;;7.46;100.00;95171.69;5036855;28;20225;-68
2024/03/02 00:30:56;;;;;;;9.23;4.73;;;;;;;7.54;100.00;95161.09;5036946;28;20627;-68
2024/03/02 00:33:23;;;;;;;11.63;4.97;;;;;;;7.37;100.00;95167.56;5036221;28;20390;-68
2024/03/02 00:35:50;;;;;;;9.43;4.57;;;;;;;7.31;100.00;95180.56;5037114;28;20793;-68
2024/03/02 00:38:18;;;;;;;10.37;4.53;;;;;;;7.48;100.00;95171.50;5036570;28;20208;-68
2024/03/02 00:40:45;;;;;;;9.23;4.53;;;;;;;7.36;100.00;95176.41;5037297;28;20942;-68
2024/03/02 00:43:40;;;;;;;12.07;5.80;;;;;;;7.64;100.00;95173.91;5035594;28;20221;-68
2024/03/02 00:46:07;;;;;;;13.60;5.60;;;;;;;7.46;100.00;95176.13;5036554;28;20583;-68
2024/03/02 00:48:35;;;;;;;9.50;5.03;;;;;;;7.38;100.00;95181.44;5037117;28;20629;-68
2024/03/02 00:51:03;;;;;;;10.33;5.03;;;;;;;7.33;100.00;95174.16;5036304;28;20398;-68
2024/03/02 00:53:32;;;;;;;13.10;5.60;;;;;;;7.56;100.00;95174.00;5035850;28;20231;-68
2024/03/02 00:56:00;;;;;;;11.33;5.10;;;;;;;7.46;100.00;95174.31;5036307;28;20672;-68
2024/03/02 00:58:26;;;;;;;12.33;5.57;;;;;;;7.34;100.00;95173.16;5036346;28;20520;-68
2024/03/02 01:00:53;;;;;;;8.23;4.17;;;;;;;7.41;100.00;95170.63;5036121;28;20209;-68
2024/03/02 01:03:19;;;;;;;12.57;5.40;;;;;;;7.45;100.00;95174.50;5035418;28;20229;-68
2024/03/02 01:05:46;;;;;;;11.57;5.23;;;;;;;7.47;100.00;95175.13;5036147;28;20204;-68
2024/03/02 01:08:12;;;;;;;10.53;4.80;;;;;;;7.41;100.00;95181.09;5036240;28;20364;-68
2024/03/02 01:10:40;;;;;;;13.10;5.50;;;;;;;7.58;100.00;95178.06;5036584;28;20205;-68
2024/03/02 01:13:07;;;;;;;11.70;4.80;;;;;;;7.39;100.00;95183.09;5035420;28;20892;-68
2024/03/02 01:15:34;;;;;;;10.57;5.20;;;;;;;7.58;100.00;95177.28;5036063;28;20216;-68
2024/03/02 01:18:00;;;;;;;11.10;5.10;;;;;;;7.49;100.00;95178.38;5036262;28;20800;-68
2024/03/02 01:20:27;;;;;;;12.20;5.20;;;;;;;7.52;100.00;95178.00;5035984;28;20209;-68
2024/03/02 01:22:53;;;;;;;10.77;4.77;;;;;;;7.48;100.00;95177.53;5035500;28;20224;-68
2024/03/02 01:25:20;;;;;;;10.87;5.23;;;;;;;7.46;100.00;95173.50;5035888;28;20201;-68
2024/03/02 01:27:48;;;;;;;12.97;5.37;;;;;;;7.64;100.00;95166.84;5036005;28;20670;-68
2024/03/02 01:30:15;;;;;;;15.47;5.67;;;;;;;7.52;100.00;95165.72;5035286;28;20216;-68
2024/03/02 01:32:41;;;;;;;11.37;5.20;;;;;;;7.46;100.00;95168.28;5036357;28;20229;-68
2024/03/02 01:35:08;;;;;;;13.07;5.90;;;;;;;7.45;100.00;95167.44;5035613;28;20230;-68
2024/03/02 01:37:35;;;;;;;11.77;5.10;;;;;;;7.44;100.00;95171.03;5035611;28;20197;-68
2024/03/02 01:40:02;;;;;;;13.67;5.50;;;;;;;7.35;100.00;95166.09;5035739;28;20270;-68
2024/03/02 01:42:29;;;;;;;13.33;5.43;;;;;;;7.35;100.00;95166.91;5036917;28;20229;-68
2024/03/02 01:44:57;;;;;;;14.37;5.67;;;;;;;7.49;100.00;95166.06;5034255;28;20687;-68
2024/03/02 01:47:23;;;;;;;13.47;5.47;;;;;;;7.33;100.00;95168.91;5035137;28;20228;-68
2024/03/02 01:49:50;;;;;;;11.50;5.17;;;;;;;7.32;100.00;95171.72;5035581;28;20672;-68
2024/03/02 01:52:17;;;;;;;12.97;5.43;;;;;;;7.37;100.00;95178.03;5035921;28;20201;-68
2024/03/02 01:54:44;;;;;;;11.67;5.67;;;;;;;7.40;100.00;95180.28;5034221;28;20215;-68
2024/03/02 01:57:10;;;;;;;15.03;6.23;;;;;;;7.37;100.00;95180.66;5036062;28;20197;-68
2024/03/02 01:59:37;;;;;;;16.33;6.60;;;;;;;7.38;100.00;95178.84;5035665;28;20296;-68
2024/03/02 02:02:05;;;;;;;17.07;6.07;;;;;;;7.23;100.00;95183.31;5035097;28;20211;-68
2024/03/02 02:04:31;;;;;;;15.60;6.30;;;;;;;7.29;100.00;95188.63;5035087;28;20574;-68
2024/03/02 02:06:59;;;;;;;12.30;5.83;;;;;;;7.32;100.00;95188.25;5035051;28;20346;-68
2024/03/02 02:09:26;;;;;;;14.43;6.47;;;;;;;7.31;100.00;95185.81;5035643;28;20197;-68
2024/03/02 02:11:52;;;;;;;11.60;6.20;;;;;;;7.26;100.00;95176.88;5034349;28;20209;-68
2024/03/02 02:14:19;;;;;;;17.80;7.10;;;;;;;7.21;100.00;95176.63;5035273;28;20589;-68
2024/03/02 02:16:46;;;;;;;14.37;5.93;;;;;;;7.22;100.00;95175.59;5035113;28;20259;-68
2024/03/02 02:19:14;;;;;;;15.40;6.40;;;;;;;7.35;100.00;95173.97;5035211;28;20208;-68
2024/03/02 02:21:44;;;;;;;13.90;6.23;;;;;;;7.43;100.00;95168.63;5035201;28;20205;-68
2024/03/02 02:24:13;;;;;;;14.77;6.17;;;;;;;7.27;100.00;95172.25;5034753;28;20467;-69
2024/03/02 02:26:39;;;;;;;12.90;5.53;;;;;;;7.29;100.00;95167.66;5035467;28;20211;-66
2024/03/02 02:29:06;;;;;;;12.03;4.83;;;;;;;7.27;100.00;95167.00;5034957;28;20705;-68
2024/03/02 02:31:38;;;;;;;11.53;5.00;;;;;;;7.45;100.00;95167.44;5035707;28;20201;-69
2024/03/02 02:34:04;;;;;;;12.90;5.80;;;;;;;7.24;100.00;95168.38;5034239;28;20229;-67
2024/03/02 02:36:31;;;;;;;14.77;6.23;;;;;;;7.15;100.00;95175.50;5035748;28;20216;-68
2024/03/02 02:39:03;;;;;;;14.57;5.80;;;;;;;7.39;100.00;95167.38;5034366;28;20216;-69
2024/03/02 02:41:29;;;;;;;14.43;6.50;;;;;;;7.20;100.00;95175.78;5034619;28;20205;-68
2024/03/02 02:43:56;;;;;;;14.37;6.53;;;;;;;7.17;100.00;95168.31;5034301;28;20232;-67
2024/03/02 02:46:22;;;;;;;13.03;5.93;;;;;;;7.13;100.00;95168.84;5035528;28;20664;-68
2024/03/02 02:48:50;;;;;;;12.93;5.83;;;;;;;7.11;100.00;95168.22;5034646;28;20231;-68
2024/03/02 02:51:17;;;;;;;15.17;5.87;;;;;;;7.13;100.00;95159.19;5034289;28;20672;-67
2024/03/02 02:53:44;;;;;;;12.07;5.30;;;;;;;7.03;100.00;95165.69;5035172;28;20861;-67
2024/03/02 02:56:12;;;;;;;12.37;5.60;;;;;;;7.19;100.00;95166.28;5034882;28;20205;-68
2024/03/02 02:58:38;;;;;;;13.87;5.77;;;;;;;7.10;100.00;95161.34;5034482;28;20255;-68
2024/03/02 03:01:05;;;;;;;10.30;5.07;;;;;;;6.98;100.00;95163.59;5035139;28;20385;-69
2024/03/02 03:03:31;;;;;;;12.07;5.20;;;;;;;7.01;100.00;95162.44;5034307;28;20233;-68
2024/03/02 03:05:58;;;;;;;13.77;6.03;;;;;;;6.99;100.00;95164.44;5034165;28;20212;-68
2024/03/02 03:08:24;;;;;;;10.73;5.03;;;;;;;7.02;100.00;95170.09;5034941;28;20224;-68
2024/03/02 03:10:51;;;;;;;12.90;5.37;;;;;;;7.02;100.00;95164.06;5034782;28;20205;-67
2024/03/02 03:13:18;;;;;;;13.80;5.70;;;;;;;7.21;100.00;95164.31;5033538;28;20232;-67
2024/03/02 03:15:45;;;;;;;13.83;6.17;;;;;;;7.09;100.00;95164.94;5034658;28;20216;-69
2024/03/02 03:18:11;;;;;;;13.17;5.73;;;;;;;7.02;100.00;95171.91;5034286;28;20648;-68
2024/03/02 03:20:38;;;;;;;13.40;6.43;;;;;;;6.96;100.00;95177.88;5034818;28;20209;-66
2024/03/02 03:23:04;;;;;;;17.27;5.97;;;;;;;6.96;100.00;95177.88;5033317;28;20712;-67
2024/03/02 03:25:31;;;;;;;12.30;5.40;;;;;;;6.95;100.00;95171.84;5038888;28;20205;-68
2024/03/02 03:27:58;;;;;;;12.43;5.83;;;;;;;6.96;100.00;95176.09;5035398;28;20228;-68
2024/03/02 03:30:26;;;;;;;14.10;6.00;;;;;;;7.11;100.00;95168.22;5038136;28;20221;-69
2024/03/02 03:32:52;;;;;;;12.50;5.27;;;;;;;7.01;100.00;95168.47;5037405;28;20227;-68
2024/03/02 03:35:19;;;;;;;10.33;4.97;;;;;;;6.93;100.00;95176.44;5037513;28;20370;-68
2024/03/02 03:37:45;;;;;;;13.07;5.60;;;;;;;6.89;100.00;95169.94;5037393;28;20279;-68
2024/03/02 03:40:13;;;;;;;11.90;5.17;;;;;;;6.88;100.00;95167.50;5037513;28;20698;-68
2024/03/02 03:42:40;;;;;;;13.67;6.37;;;;;;;6.78;100.00;95167.78;5037788;28;20224;-68
2024/03/02 03:45:07;;;;;;;15.77;5.43;;;;;;;6.89;100.00;95175.16;5037714;28;20228;-68
2024/03/02 03:47:36;;;;;;;10.67;4.77;;;;;;;6.96;100.00;95170.03;5038062;28;20225;-67
2024/03/02 03:50:06;;;;;;;12.73;5.47;;;;;;;6.80;100.00;95170.22;5037336;28;20201;-68
2024/03/02 03:52:33;;;;;;;11.30;5.50;;;;;;;6.91;100.00;95173.19;5037877;28;20228;-68
2024/03/02 03:55:00;;;;;;;13.47;5.40;;;;;;;6.88;100.00;95175.34;5036952;28;20205;-67
2024/03/02 03:57:26;;;;;;;16.00;6.90;;;;;;;6.86;100.00;95174.72;5038613;28;20513;-66
2024/03/02 03:59:53;;;;;;;12.43;4.97;;;;;;;6.88;100.00;95177.97;5037315;28;20228;-68
2024/03/02 04:02:19;;;;;;;13.23;6.10;;;;;;;6.88;100.00;95172.72;5037865;28;20201;-68
2024/03/02 04:04:47;;;;;;;11.33;5.20;;;;;;;7.03;100.00;95181.41;5037976;28;20213;-69
2024/03/02 04:07:14;;;;;;;11.37;5.10;;;;;;;6.90;100.00;95178.63;5037341;28;20201;-68
2024/03/02 04:09:40;;;;;;;10.37;5.00;;;;;;;6.88;100.00;95183.22;5037101;28;20759;-68
2024/03/02 04:12:07;;;;;;;13.57;5.27;;;;;;;6.84;100.00;95181.94;5038047;28;20213;-69
2024/03/02 04:14:33;;;;;;;10.23;4.70;;;;;;;6.77;100.00;95181.84;5037017;28;20229;-68
2024/03/02 04:17:00;;;;;;;11.40;5.10;;;;;;;6.64;100.00;95180.81;5036624;28;20584;-68
2024/03/02 04:19:27;;;;;;;11.20;5.47;;;;;;;6.63;100.00;95189.66;5037680;28;20211;-68
2024/03/02 04:21:55;;;;;;;9.83;4.83;;;;;;;6.73;100.00;95174.53;5036715;28;20205;-69
2024/03/02 04:24:21;;;;;;;12.97;5.40;;;;;;;6.68;100.00;95182.94;5036583;28;20217;-66
2024/03/02 04:26:48;;;;;;;10.47;5.10;;;;;;;6.66;100.00;95179.66;5037709;28;20212;-67
2024/03/02 04:29:14;;;;;;;9.20;4.23;;;;;;;6.69;100.00;95184.56;5037766;28;20695;-67
2024/03/02 04:31:41;;;;;;;12.27;5.07;;;;;;;6.65;100.00;95176.44;5036708;28;20216;-67
2024/03/02 04:34:08;;;;;;;12.30;5.77;;;;;;;6.64;100.00;95177.41;5036785;28;20240;-68
2024/03/02 04:36:34;;;;;;;13.63;6.17;;;;;;;6.68;100.00;95182.09;5037335;28;20305;-66
2024/03/02 04:39:02;;;;;;;13.27;6.03;;;;;;;6.79;100.00;95171.19;5037353;28;20520;-68
2024/03/02 04:41:28;;;;;;;14.07;6.40;;;;;;;6.71;100.00;95171.28;5036948;28;20876;-69
2024/03/02 04:43:55;;;;;;;12.47;6.07;;;;;;;6.74;100.00;95170.91;5036546;28;20228;-67
2024/03/02 04:46:22;;;;;;;13.63;6.37;;;;;;;6.82;100.00;95162.97;5037465;28;20215;-68
2024/03/02 04:48:54;;;;;;;15.37;6.63;;;;;;;6.89;100.00;95169.13;5037350;28;20235;-68
2024/03/02 04:51:21;;;;;;;12.83;6.57;;;;;;;6.91;100.00;95167.97;5037105;28;20204;-69
2024/03/02 04:53:48;;;;;;;16.20;6.20;;;;;;;7.00;100.00;95171.28;5037045;28;20231;-68
2024/03/02 04:56:39;;;;;;;14.07;6.27;;;;;;;7.10;100.00;95167.38;5037290;28;20664;-67
2024/03/02 04:59:06;;;;;;;17.50;6.97;;;;;;;6.99;100.00;95172.28;5036793;28;20279;-67
2024/03/02 05:01:33;;;;;;;13.57;6.40;;;;;;;7.00;100.00;95174.72;5037027;28;20205;-69
2024/03/02 05:04:00;;;;;;;17.63;6.93;;;;;;;6.96;100.00;95176.09;5036643;28;20233;-67
2024/03/02 05:06:26;;;;;;;13.27;6.60;;;;;;;7.02;100.00;95179.78;5037087;28;20209;-68
2024/03/02 05:08:53;;;;;;;12.67;6.20;;;;;;;7.00;100.00;95187.00;5037418;28;20241;-67
2024/03/02 05:11:44;;;;;;;15.90;7.07;;;;;;;7.05;100.00;95190.72;5036990;28;20209;-68
2024/03/02 05:14:10;;;;;;;14.17;6.20;;;;;;;6.88;100.00;95191.88;5036294;28;20244;-67
2024/03/02 05:16:38;;;;;;;14.60;6.67;;;;;;;7.00;100.00;95200.09;5038005;28;21032;-68
2024/03/02 05:19:06;;;;;;;12.97;6.33;;;;;;;6.74;100.00;95207.56;5036971;28;20201;-67
2024/03/02 05:21:33;;;;;;;15.07;6.63;;;;;;;6.65;100.00;95198.16;5036061;28;20197;-68
2024/03/02 05:24:00;;;;;;;12.30;5.93;;;;;;;6.72;100.00;95204.31;5035646;28;20230;-68
2024/03/02 05:26:28;;;;;;;12.60;6.07;;;;;;;6.60;100.00;95205.75;5037375;28;20219;-68
2024/03/02 05:28:54;;;;;;;14.33;6.33;;;;;;;6.52;100.00;95208.44;5036213;28;20596;-68
2024/03/02 05:31:21;;;;;;;13.43;6.47;;;;;;;6.67;100.00;95211.91;5036306;28;20210;-68
2024/03/02 05:33:47;;;;;;;12.80;5.57;;;;;;;6.61;100.00;95209.97;5035761;28;20233;-68
2024/03/02 05:36:14;;;;;;;10.87;5.57;;;;;;;6.70;100.00;95209.72;5036336;28;20216;-66
2024/03/02 05:38:40;;;;;;;17.03;7.67;;;;;;;6.73;100.00;95208.56;5036277;28;20208;-68
2024/03/02 05:41:07;;;;;;;15.23;6.87;;;;;;;6.68;100.00;95208.28;5036397;28;20300;-68
2024/03/02 05:43:35;;;;;;;14.70;6.47;;;;;;;6.88;100.00;95214.63;5035686;28;20225;-69
2024/03/02 05:46:02;;;;;;;13.63;5.83;;;;;;;6.66;100.00;95211.06;5035848;28;20617;-66
2024/03/02 05:48:29;;;;;;;13.77;6.27;;;;;;;6.66;100.00;95207.66;5035788;28;20225;-66
2024/03/02 05:50:56;;;;;;;12.20;6.23;;;;;;;6.64;100.00;95217.47;5036218;28;20209;-68
2024/03/02 05:53:23;;;;;;;12.57;5.27;;;;;;;6.53;100.00;95212.69;5035003;28;20336;-67
2024/03/02 05:55:53;;;;;;;11.60;5.87;;;;;;;6.38;100.00;95211.81;5036306;28;20675;-68
2024/03/02 05:58:31;;;;;;;12.20;6.33;;;;;;;6.39;100.00;95221.31;5035416;28;20212;-68
2024/03/02 06:00:59;;;;;;;11.60;5.10;;;;;;;6.48;100.00;95219.41;5036391;28;20307;-68
2024/03/02 06:03:25;;;;;;;11.67;5.63;;;;;;;6.21;100.00;95228.66;5034970;28;20225;-66
2024/03/02 06:05:53;;;;;;;14.27;7.50;;;;;;;6.35;100.00;95221.81;5035949;28;20655;-68
2024/03/02 06:08:19;;;;;;;14.57;6.30;;;;;;;6.39;100.00;95229.16;5035520;28;20231;-68
2024/03/02 06:10:46;;;;;;;12.88;6.53;;;;;;;6.39;100.00;95231.78;5036061;28;20440;-67
2024/03/02 06:13:13;;;;;;;11.17;5.70;;;;;;;6.44;100.00;95231.22;5034826;28;20251;-67
2024/03/02 06:15:39;;;;;;;11.47;5.80;;;;;;;6.50;100.00;95227.91;5036760;28;20201;-67
2024/03/02 06:18:07;;;;;;;13.60;5.83;;;;;;;6.66;100.00;95224.16;5035535;28;20553;-69
2024/03/02 06:20:34;;;;;;;11.23;6.03;;;;;;;6.52;100.00;95224.13;5035765;28;20205;-68
2024/03/02 06:23:01;;;;;;;13.03;6.03;;;;;;;6.62;100.00;95229.09;5035199;28;20224;-68
2024/03/02 06:25:28;;;;;;;12.47;5.80;;;;;;;6.67;100.00;95232.84;5036040;28;20216;-69
2024/03/02 06:27:54;;;;;;;12.77;6.23;;;;;;;6.75;100.00;95235.38;5035477;28;20748;-69
2024/03/02 06:30:21;;;;;;;12.67;6.03;;;;;;;6.76;100.00;95237.00;5035378;28;20209;-69
2024/03/02 06:32:47;;;;;;;11.67;6.03;;;;;;;6.84;100.00;95242.97;5034849;28;20225;-68
2024/03/02 06:35:15;;;;;;;16.30;6.27;;;;;;;6.96;100.00;95243.34;5035687;28;20228;-68
2024/03/02 06:37:42;;;;;;;13.63;6.50;;;;;;;6.76;100.00;95240.44;5034874;28;20205;-67
2024/03/02 06:40:09;;;;;;;13.20;5.93;;;;;;;6.95;100.00;95239.09;5034910;28;20219;-68
2024/03/02 06:42:36;;;;;;;13.43;6.37;;;;;;;6.94;100.00;95234.88;5035355;28;20721;-68
2024/03/02 06:45:03;;;;;;;11.00;5.33;;;;;;;7.02;100.00;95226.91;5034437;28;20205;-68
2024/03/02 06:47:29;;;;;;;13.47;6.00;;;;;;;6.94;100.00;95240.09;5034973;28;20674;-69
2024/03/02 06:49:57;;;;;;;11.33;5.77;;;;;;;6.97;100.00;95231.88;5034415;28;20635;-69
2024/03/02 06:52:25;;;;;;;10.60;5.17;;;;;;;7.16;100.00;95236.59;5035316;28;20201;-69
2024/03/02 06:54:51;;;;;;;13.27;6.47;;;;;;;6.96;100.00;95227.63;5034084;28;20205;-68
2024/03/02 06:57:19;;;;;;;13.67;6.03;;;;;;;7.13;100.00;95231.69;5035847;28;20235;-68
2024/03/02 06:59:46;;;;;;;16.93;7.00;;;;;;;7.28;100.00;95231.53;5038125;28;20305;-67
2024/03/02 07:02:13;;;;;;;15.97;6.70;;;;;;;7.46;100.00;95221.50;5038109;28;20291;-69
2024/03/02 07:04:39;;;;;;;15.27;6.47;;;;;;;7.33;100.00;95223.94;5038527;28;20201;-67
2024/03/02 07:07:05;;;;;;;15.50;7.47;;;;;;;7.53;100.00;95232.06;5038586;28;20873;-69
2024/03/02 07:09:33;;;;;;;17.23;7.53;;;;;;;7.76;100.00;95217.00;5038279;28;20503;-68
2024/03/02 07:12:01;;;;;;;16.43;6.80;;;;;;;7.69;100.00;95223.97;5038040;28;20205;-67
2024/03/02 07:14:55;;;;;;;18.10;7.77;;;;;;;7.81;100.00;95227.75;5037941;28;20295;-69
2024/03/02 07:17:13;;;;;;;16.97;7.27;;;;;;;7.98;100.00;95222.09;5038289;28;20205;-67
2024/03/02 07:19:40;;;;;;;20.50;8.03;;;;;;;7.97;100.00;95226.53;5038697;28;20201;-68
2024/03/02 07:22:07;;;;;;;15.87;7.07;;;;;;;8.20;100.00;95221.16;5039471;28;20201;-68
2024/03/02 07:24:40;;;;;;;19.17;8.23;;;;;;;8.28;100.00;95221.03;5038879;28;20225;-69
2024/03/02 07:27:07;;;;;;;16.47;7.63;;;;;;;8.13;100.00;95231.59;5039683;28;20586;-70
2024/03/02 07:29:33;;;;;;;12.27;6.13;;;;;;;8.12;100.00;95234.34;5039397;28;20241;-68
2024/03/02 07:32:00;;;;;;;14.77;6.90;;;;;;;8.03;100.00;95238.91;5036029;28;20221;-70
2024/03/02 07:34:26;;;;;;;13.77;6.20;;;;;;;7.79;100.00;95243.69;5036258;28;20225;-69
2024/03/02 07:36:53;;;;;;;12.60;5.90;;;;;;;7.80;100.00;95240.03;5038006;28;20209;-69
2024/03/02 07:39:20;;;;;;;21.27;6.73;;;;;;;7.74;100.00;95243.41;5035943;28;20206;-68
2024/03/02 07:41:48;;;;;;;14.70;6.83;;;;;;;7.37;100.00;95259.28;5036697;28;20239;-68
2024/03/02 07:44:15;;;;;;;14.13;6.70;;;;;;;7.51;100.00;95255.00;5037729;28;20231;-68
2024/03/02 07:46:41;;;;;;;16.10;6.03;;;;;;;7.42;100.00;95256.91;5037897;28;20225;-68
2024/03/02 07:49:09;;;;;;;20.47;8.77;;;;;;;7.60;100.00;95249.50;5037081;28;20232;-68
2024/03/02 07:51:36;;;;;;;21.20;7.20;;;;;;;7.40;100.00;95253.66;5037718;28;20205;-68
2024/03/02 07:54:02;;;;;;;15.20;6.90;;;;;;;7.54;100.00;95244.97;5037599;28;20248;-68
2024/03/02 07:56:29;;;;;;;14.53;7.00;;;;;;;7.65;100.00;95252.38;5037225;28;20912;-68
2024/03/02 07:59:00;;;;;;;15.57;7.77;;;;;;;7.78;100.00;95246.47;5037938;28;20201;-68
2024/03/02 08:01:27;;;;;;;12.40;6.60;;;;;;;7.77;100.00;95245.66;5037686;28;20213;-68
2024/03/02 08:03:55;;;;;;;18.77;7.60;;;;;;;7.82;100.00;95238.06;5036502;28;20233;-68
2024/03/02 08:06:21;;;;;;;14.87;6.67;;;;;;;7.99;100.00;95239.44;5037025;28;20266;-68
2024/03/02 08:08:48;;;;;;;17.50;6.93;;;;;;;8.19;100.00;95243.16;5036388;28;20232;-68
2024/03/02 08:11:14;;;;;;;23.17;7.33;;;;;;;8.18;100.00;95244.13;5036638;28;20216;-68
2024/03/02 08:13:41;;;;;;;13.53;6.50;;;;;;;8.23;100.00;95247.00;5035834;28;20228;-68
2024/03/02 08:16:09;;;;;;;16.43;7.47;;;;;;;8.63;100.00;95248.00;5036408;28;21098;-69
2024/03/02 08:18:35;;;;;;;18.73;8.13;;;;;;;8.39;100.00;95242.34;5036259;28;20233;-69
2024/03/02 08:21:02;;;;;;;14.20;7.10;;;;;;;8.63;100.00;95242.75;5035997;28;20674;-68
2024/03/02 08:23:29;;;;;;;16.40;7.23;;;;;;;8.53;100.00;95244.09;5035425;28;20263;-68
2024/03/02 08:25:55;;;;;;;14.13;7.00;;;;;;;8.65;100.00;95242.56;5036371;28;20209;-69
2024/03/02 08:28:22;;;;;;;18.83;8.33;;;;;;;8.54;100.00;95243.91;5036715;28;21332;-68
2024/03/02 08:30:48;;;;;;;14.43;6.93;;;;;;;8.69;100.00;95239.41;5036104;28;20227;-68
2024/03/02 08:33:16;;;;;;;19.37;7.47;;;;;;;8.54;100.00;95246.53;5035215;28;20221;-69
2024/03/02 08:35:42;;;;;;;18.40;8.37;;;;;;;8.49;100.00;95248.09;5036063;28;20205;-68
2024/03/02 08:38:09;;;;;;;19.70;8.63;;;;;;;8.72;100.00;95246.88;5036037;28;20208;-68
2024/03/02 08:40:36;;;;;;;20.87;8.70;;;;;;;8.94;100.00;95243.22;5037085;28;20289;-68
2024/03/02 08:43:02;;;;;;;23.33;9.90;;;;;;;8.97;100.00;95242.03;5035921;28;20232;-69
2024/03/02 08:45:29;;;;;;;18.77;8.53;;;;;;;9.20;100.00;95241.59;5037082;28;20205;-68
2024/03/02 08:47:55;;;;;;;27.40;10.53;;;;;;;9.28;100.00;95238.00;5036455;28;20216;-68
2024/03/02 08:50:23;;;;;;;21.97;9.23;;;;;;;9.41;100.00;95241.50;5036346;28;20614;-68
2024/03/02 08:52:50;;;;;;;22.60;9.43;;;;;;;9.18;100.00;95240.97;5035309;28;20657;-69
2024/03/02 08:55:16;;;;;;;17.23;8.03;;;;;;;9.17;100.00;95244.59;5036178;28;20205;-68
2024/03/02 08:57:43;;;;;;;21.67;9.37;;;;;;;9.11;100.00;95239.28;5036405;28;20205;-69
2024/03/02 09:00:11;;;;;;;15.53;7.33;;;;;;;9.12;100.00;95246.97;5036696;28;20201;-68
2024/03/02 09:02:37;;;;;;;15.10;7.10;;;;;;;9.25;100.00;95243.63;5037526;28;20255;-68
2024/03/02 09:05:05;;;;;;;16.30;6.80;;;;;;;9.55;100.00;95239.78;5035717;28;20224;-69
2024/03/02 09:07:33;;;;;;;22.47;7.53;;;;;;;9.58;100.00;95239.38;5035990;28;20856;-68
2024/03/02 09:10:00;;;;;;;16.07;7.37;;;;;;;9.79;100.00;95235.63;5035883;28;20787;-68
2024/03/02 09:12:26;;;;;;;13.87;6.97;;;;;;;9.80;100.00;95242.50;5037238;28;20259;-69
2024/03/02 09:14:53;;;;;;;13.77;6.87;;;;;;;9.47;100.00;95239.91;5035518;28;20205;-69
2024/03/02 09:17:19;;;;;;;13.57;7.03;;;;;;;9.73;100.00;95241.66;5036459;28;20695;-68
2024/03/02 09:19:47;;;;;;;13.03;6.13;;;;;;;9.88;100.00;95241.53;5036447;28;20201;-68
2024/03/02 09:22:14;;;;;;;12.50;6.07;;;;;;;9.89;100.00;95236.06;5035808;28;20595;-68
2024/03/02 09:24:41;;;;;;;14.37;6.70;;;;;;;9.98;100.00;95232.28;5035701;28;20205;-68
2024/03/02 09:27:08;;;;;;;15.17;7.27;;;;;;;9.97;100.00;95233.28;5036934;28;20205;-69
2024/03/02 09:29:34;;;;;;;13.73;6.13;;;;;;;9.85;100.00;95240.13;5036021;28;20220;-68
2024/03/02 09:32:01;;;;;;;11.70;5.47;;;;;;;9.87;100.00;95232.03;5036724;28;21254;-69
2024/03/02 09:34:27;;;;;;;13.63;6.37;;;;;;;9.85;100.00;95234.84;5035568;28;20231;-68
2024/03/02 09:36:54;;;;;;;14.50;6.40;;;;;;;9.43;100.00;95229.00;5037157;28;20202;-68
2024/03/02 09:39:20;;;;;;;14.23;6.67;;;;;;;9.44;100.00;95230.59;5035963;28;20208;-68
2024/03/02 09:41:49;;;;;;;15.00;6.63;;;;;;;9.90;100.00;95236.88;5036944;28;20204;-69
2024/03/02 09:44:16;;;;;;;10.90;5.70;;;;;;;9.96;100.00;95229.03;5035283;28;20217;-68
2024/03/02 09:46:43;;;;;;;13.03;7.03;;;;;;;9.86;100.00;95220.69;5036330;28;20197;-69
2024/03/02 09:49:10;;;;;;;18.13;7.60;;;;;;;10.20;100.00;95228.50;5035855;28;20225;-68
2024/03/02 09:51:38;;;;;;;15.77;7.27;;;;;;;10.60;100.00;95220.50;5035873;28;20197;-68
2024/03/02 09:54:05;;;;;;;14.23;6.43;;;;;;;10.78;100.00;95223.34;5035302;28;20221;-69
2024/03/02 09:56:32;;;;;;;14.00;6.13;;;;;;;10.79;100.00;95226.78;5036343;28;20204;-68
2024/03/02 09:59:00;;;;;;;12.13;5.47;;;;;;;10.80;100.00;95225.75;5036276;28;20201;-68
2024/03/02 10:01:26;;;;;;;12.17;6.13;;;;;;;10.29;100.00;95229.94;5035004;28;20213;-69
2024/03/02 10:03:54;;;;;;;9.60;5.47;;;;;;;10.35;100.00;95224.69;5034572;28;20735;-69
2024/03/02 10:06:22;;;;;;;10.73;5.43;;;;;;;10.59;100.00;95220.66;5036454;28;20205;-69
2024/03/02 10:08:49;;;;;;;13.27;5.70;;;;;;;10.55;100.00;95222.09;5035775;28;20202;-68
2024/03/02 10:11:28;;;;;;;10.83;5.60;;;;;;;10.83;100.00;95217.44;5035464;28;20220;-68
2024/03/02 10:14:08;;;;;;;10.47;5.50;;;;;;;10.81;100.00;95207.09;5035705;28;20228;-69
2024/03/02 10:16:35;;;;;;;11.90;5.73;;;;;;;10.75;100.00;95207.13;5035496;28;20220;-68
2024/03/02 10:19:16;;;;;;;12.10;4.60;;;;;;;11.22;100.00;95200.56;5035192;28;20207;-69
2024/03/02 10:21:43;;;;;;;14.60;6.23;;;;;;;10.86;100.00;95206.47;5035916;28;20227;-69
2024/03/02 10:24:09;;;;;;;10.47;5.40;;;;;;;11.26;100.00;95204.41;5035305;28;20749;-69
2024/03/02 10:26:36;;;;;;;10.53;6.00;;;;;;;11.18;100.00;95198.56;5034901;28;20200;-69
2024/03/02 10:29:02;;;;;;;13.23;6.27;;;;;;;11.29;100.00;95200.56;5035551;28;20209;-68
2024/03/02 10:31:31;;;;;;;9.83;4.83;;;;;;;11.70;100.00;95194.78;5035354;28;20205;-69
2024/03/02 10:33:59;;;;;;;11.67;6.50;;;;;;;11.60;100.00;95193.63;5038064;28;20694;-69
2024/03/02 10:36:26;;;;;;;11.63;6.00;;;;;;;11.86;100.00;95188.22;5039580;28;20288;-69
2024/03/02 10:38:54;;;;;;;13.63;6.87;;;;;;;11.91;100.00;95185.78;5039892;28;20205;-68
2024/03/02 10:41:24;;;;;;;9.20;4.70;;;;;;;12.13;100.00;95184.44;5039452;28;20205;-69
2024/03/02 10:43:55;;;;;;;9.17;5.00;;;;;;;12.22;100.00;95184.78;5039640;28;20225;-69
2024/03/02 10:46:23;;;;;;;7.93;4.40;;;;;;;12.13;100.00;95179.97;5039078;28;20228;-69
2024/03/02 10:48:52;;;;;;;12.53;5.10;;;;;;;12.26;100.00;95175.41;5039585;28;20201;-69
2024/03/02 10:51:18;;;;;;;11.07;4.83;;;;;;;11.86;100.00;95175.03;5039322;28;20232;-69
2024/03/02 10:53:45;;;;;;;13.90;5.83;;;;;;;11.71;100.00;95174.47;5039132;28;20221;-69
2024/03/02 10:56:17;;;;;;;12.30;4.70;;;;;;;11.82;100.00;95163.28;5040028;28;20201;-69
2024/03/02 10:58:44;;;;;;;8.70;4.70;;;;;;;11.84;100.00;95169.97;5039368;28;20625;-69
2024/03/02 11:01:12;;;;;;;9.93;4.90;;;;;;;11.71;100.00;95172.66;5039574;28;20197;-69
2024/03/02 11:03:40;;;;;;;9.73;4.60;;;;;;;11.98;100.00;95154.88;5038724;28;20232;-69
2024/03/02 11:06:10;;;;;;;13.13;6.03;;;;;;;11.92;100.00;95156.53;5038565;28;20201;-69
2024/03/02 11:08:41;;;;;;;13.63;6.00;;;;;;;12.03;100.00;95152.41;5038832;28;20197;-69
2024/03/02 11:11:11;;;;;;;12.73;5.83;;;;;;;11.94;100.00;95153.66;5038897;28;20221;-69
2024/03/02 11:13:39;;;;;;;12.27;5.77;;;;;;;11.96;100.00;95146.34;5038073;28;20738;-69
2024/03/02 11:16:14;;;;;;;10.77;5.03;;;;;;;11.61;100.00;95143.28;5039454;28;20258;-68
2024/03/02 11:18:42;;;;;;;9.33;5.13;;;;;;;11.61;100.00;95134.56;5038868;28;20201;-69
2024/03/02 11:21:10;;;;;;;9.30;4.80;;;;;;;12.15;100.00;95126.94;5039225;28;20573;-69
2024/03/02 11:23:37;;;;;;;10.50;4.77;;;;;;;11.91;100.00;95125.06;5037927;28;20707;-69
2024/03/02 11:26:18;;;;;;;9.97;5.53;;;;;;;12.27;100.00;95121.56;5039789;28;20205;-69